Time;durP1;ratioP1;P1;durP2;ratioP2;P2;SDS_P1;SDS_P2;PMS_P1;PMS_P2;Temp;Humidity;BMP_temperature;BMP_pressure;BME280_temperature;BME280_humidity;BME280_pressure;Samples;Min_cycle;Max_cycle;Signal;HPM_P1;HPM_P2
2021/04/11 00:00:53;;;;;;;13.43;10.15;;;3.50;96.00;;;;;;5042781;28;20057;-39
2021/04/11 00:03:26;;;;;;;14.57;10.93;;;3.60;96.20;;;;;;5054297;28;20052;-39
2021/04/11 00:05:58;;;;;;;11.35;8.75;;;3.50;96.10;;;;;;5046344;28;20047;-39
2021/04/11 00:08:24;;;;;;;12.80;9.30;;;3.50;96.10;;;;;;5046207;28;20068;-39
2021/04/11 00:11:00;;;;;;;12.00;10.45;;;3.50;96.00;;;;;;5046637;28;20429;-39
2021/04/11 00:13:35;;;;;;;12.40;11.05;;;3.50;96.10;;;;;;5046338;28;20186;-38
2021/04/11 00:16:02;;;;;;;14.85;12.13;;;3.50;96.10;;;;;;5046546;28;20045;-39
2021/04/11 00:18:32;;;;;;;14.75;11.85;;;3.50;96.00;;;;;;5045737;28;20053;-39
2021/04/11 00:21:03;;;;;;;18.73;15.27;;;3.40;96.30;;;;;;5047370;28;20048;-38
2021/04/11 00:23:32;;;;;;;14.93;13.37;;;3.50;96.10;;;;;;5047446;28;20098;-39
2021/04/11 00:26:04;;;;;;;17.95;15.88;;;3.50;96.10;;;;;;5047200;28;20067;-39
2021/04/11 00:28:32;;;;;;;18.00;16.02;;;3.50;96.10;;;;;;5052312;28;20421;-39
2021/04/11 00:31:01;;;;;;;17.80;15.85;;;3.50;96.10;;;;;;5048117;28;20053;-39
2021/04/11 00:33:36;;;;;;;22.02;17.08;;;3.50;96.10;;;;;;5046813;28;20539;-39
2021/04/11 00:36:10;;;;;;;19.58;17.67;;;3.50;96.20;;;;;;5046543;28;20140;-39
2021/04/11 00:38:41;;;;;;;23.13;19.20;;;3.50;96.10;;;;;;5046216;28;20417;-39
2021/04/11 00:41:17;;;;;;;24.40;19.30;;;3.40;96.20;;;;;;5046782;28;20100;-39
2021/04/11 00:43:46;;;;;;;20.88;18.70;;;3.50;96.30;;;;;;5045568;28;20056;-39
2021/04/11 00:46:40;;;;;;;23.48;19.40;;;3.50;96.30;;;;;;5047602;28;20186;-39
2021/04/11 00:49:29;;;;;;;21.02;17.48;;;3.50;96.20;;;;;;5047850;28;20486;-39
2021/04/11 00:51:55;;;;;;;21.05;17.52;;;3.50;96.30;;;;;;5042604;28;20056;-39
2021/04/11 00:54:27;;;;;;;19.83;17.73;;;3.50;96.40;;;;;;5047387;28;20437;-38
2021/04/11 00:56:53;;;;;;;19.63;17.58;;;3.50;96.30;;;;;;5046475;28;20053;-39
2021/04/11 00:59:20;;;;;;;18.83;16.83;;;3.50;96.30;;;;;;5046603;28;20083;-39
2021/04/11 01:01:51;;;;;;;18.77;16.80;;;3.50;96.20;;;;;;5047122;28;20079;-39
2021/04/11 01:04:17;;;;;;;20.75;16.70;;;3.50;96.20;;;;;;5046790;28;20053;-39
2021/04/11 01:06:59;;;;;;;19.58;16.70;;;3.50;96.30;;;;;;5046122;28;20053;-39
2021/04/11 01:09:32;;;;;;;16.65;15.05;;;3.50;96.30;;;;;;5047119;28;20144;-39
2021/04/11 01:12:01;;;;;;;16.65;14.98;;;3.50;96.30;;;;;;5050313;28;20052;-39
2021/04/11 01:14:35;;;;;;;17.38;15.05;;;3.50;96.20;;;;;;5040911;28;20049;-39
2021/04/11 01:17:15;;;;;;;17.45;13.63;;;3.50;96.20;;;;;;5046829;28;20172;-39
2021/04/11 01:19:46;;;;;;;16.25;13.45;;;3.60;96.20;;;;;;5034191;28;20060;-39
2021/04/11 01:22:33;;;;;;;15.35;13.68;;;3.50;96.10;;;;;;5041179;28;20053;-38
2021/04/11 01:25:10;;;;;;;17.33;15.18;;;3.60;96.20;;;;;;5040333;28;20135;-39
2021/04/11 01:27:36;;;;;;;16.08;14.30;;;3.60;96.20;;;;;;5036108;28;20538;-39
2021/04/11 01:30:23;;;;;;;14.75;13.25;;;3.60;96.20;;;;;;5048921;28;20779;-39
2021/04/11 01:32:51;;;;;;;15.20;13.60;;;3.60;96.20;;;;;;5053748;28;20048;-37
2021/04/11 01:35:21;;;;;;;16.27;13.75;;;3.60;96.20;;;;;;5050958;28;20118;-37
2021/04/11 01:37:52;;;;;;;16.73;14.27;;;3.60;96.20;;;;;;5050432;28;20634;-36
2021/04/11 01:40:41;;;;;;;15.85;13.55;;;3.60;96.30;;;;;;5050848;28;20110;-39
2021/04/11 01:43:08;;;;;;;14.82;13.23;;;3.60;96.20;;;;;;5049297;28;20053;-37
2021/04/11 01:45:37;;;;;;;16.65;13.57;;;3.60;96.20;;;;;;5050474;28;20053;-37
2021/04/11 01:48:04;;;;;;;15.27;13.68;;;3.60;96.20;;;;;;5049985;28;20057;-37
2021/04/11 01:50:36;;;;;;;15.20;13.15;;;3.60;96.30;;;;;;5051244;28;20111;-37
2021/04/11 01:53:06;;;;;;;15.90;13.10;;;3.70;96.20;;;;;;5049851;28;20045;-36
2021/04/11 01:55:33;;;;;;;15.20;13.60;;;3.70;96.30;;;;;;5050322;28;20076;-37
2021/04/11 01:58:02;;;;;;;13.00;10.82;;;3.70;96.20;;;;;;5049378;28;20052;-37
2021/04/11 02:01:06;;;;;;;16.27;11.55;;;3.70;96.20;;;;;;5050064;28;20056;-36
2021/04/11 02:03:32;;;;;;;15.43;12.20;;;3.70;96.30;;;;;;5011406;28;20088;-37
2021/04/11 02:06:06;;;;;;;13.63;10.93;;;3.70;96.20;;;;;;5027005;28;20050;-37
2021/04/11 02:08:34;;;;;;;11.85;10.70;;;3.70;96.30;;;;;;5026752;28;20703;-36
2021/04/11 02:11:06;;;;;;;12.55;10.27;;;3.70;96.20;;;;;;5025778;28;20116;-37
2021/04/11 02:13:36;;;;;;;12.27;10.13;;;3.80;96.10;;;;;;5023225;28;20053;-37
2021/04/11 02:16:04;;;;;;;13.65;11.77;;;3.70;96.20;;;;;;5026632;28;20049;-37
2021/04/11 02:18:32;;;;;;;15.20;13.75;;;3.70;96.20;;;;;;5026331;28;20041;-38
2021/04/11 02:21:04;;;;;;;15.18;12.77;;;3.70;96.20;;;;;;5026712;28;20456;-37
2021/04/11 02:23:33;;;;;;;16.20;14.23;;;3.70;96.10;;;;;;5027107;28;20494;-37
2021/04/11 02:26:02;;;;;;;15.40;13.90;;;3.70;96.10;;;;;;5025888;28;20646;-38
2021/04/11 02:28:33;;;;;;;15.93;14.32;;;3.60;96.20;;;;;;5023347;28;20077;-37
2021/04/11 02:31:24;;;;;;;21.10;13.38;;;3.60;96.10;;;;;;5026110;28;20672;-37
2021/04/11 02:33:55;;;;;;;14.98;13.00;;;3.60;96.30;;;;;;5024303;28;20493;-37
2021/04/11 02:36:23;;;;;;;14.25;12.75;;;3.70;96.30;;;;;;5016223;28;20847;-37
2021/04/11 02:38:53;;;;;;;14.38;12.45;;;3.60;96.30;;;;;;5034878;28;20572;-37
2021/04/11 02:41:23;;;;;;;14.48;12.95;;;3.60;96.30;;;;;;5047547;28;20056;-38
2021/04/11 02:43:52;;;;;;;15.27;12.20;;;3.60;96.40;;;;;;5049081;28;20053;-37
2021/04/11 02:46:21;;;;;;;14.15;11.13;;;3.60;96.40;;;;;;5048553;28;20053;-38
2021/04/11 02:48:53;;;;;;;11.90;9.77;;;3.60;96.50;;;;;;5047533;28;20501;-38
2021/04/11 02:51:20;;;;;;;12.15;10.00;;;3.60;96.50;;;;;;5049020;28;20060;-37
2021/04/11 02:53:49;;;;;;;11.52;8.68;;;3.60;96.50;;;;;;5050110;28;20040;-37
2021/04/11 02:56:16;;;;;;;10.95;8.23;;;3.60;96.40;;;;;;5048670;28;20069;-38
2021/04/11 02:58:46;;;;;;;11.45;8.23;;;3.60;96.50;;;;;;5048092;28;20532;-37
2021/04/11 03:01:16;;;;;;;9.43;7.97;;;3.60;96.60;;;;;;5048724;28;20560;-38
2021/04/11 03:03:42;;;;;;;8.68;7.32;;;3.60;96.60;;;;;;5048120;28;20118;-37
2021/04/11 03:06:19;;;;;;;8.48;7.43;;;3.70;96.60;;;;;;5049348;28;20076;-37
2021/04/11 03:08:52;;;;;;;11.43;8.07;;;3.60;96.70;;;;;;5043211;28;20075;-37
2021/04/11 03:11:30;;;;;;;9.90;6.97;;;3.70;96.70;;;;;;5049060;28;20056;-38
2021/04/11 03:14:00;;;;;;;6.93;6.20;;;3.70;96.80;;;;;;5048609;28;20084;-38
2021/04/11 03:16:28;;;;;;;7.43;6.25;;;3.70;96.70;;;;;;5048515;28;20135;-38
2021/04/11 03:18:57;;;;;;;7.50;6.70;;;3.70;96.70;;;;;;5048568;28;20084;-37
2021/04/11 03:21:27;;;;;;;7.63;5.82;;;3.60;96.70;;;;;;5048073;28;20105;-38
2021/04/11 03:24:00;;;;;;;8.18;6.07;;;3.60;96.70;;;;;;5048256;28;20069;-39
2021/04/11 03:26:53;;;;;;;8.80;5.80;;;3.60;96.70;;;;;;5048448;28;20080;-38
2021/04/11 03:29:59;;;;;;;7.05;5.82;;;3.60;96.70;;;;;;5039018;28;20493;-38
2021/04/11 03:32:51;;;;;;;7.68;6.88;;;3.60;96.70;;;;;;5006310;28;20601;-38
2021/04/11 03:35:23;;;;;;;;;;;3.60;96.80;;;;;;5005741;28;20141;-39
2021/04/11 03:38:15;;;;;;;8.15;6.47;;;3.70;96.90;;;;;;5010962;28;20023;-38
2021/04/11 03:40:42;;;;;;;;;;;3.70;96.90;;;;;;5005674;28;20116;-38
2021/04/11 03:43:19;;;;;;;5.30;4.80;;;3.60;96.90;;;;;;4989250;28;20016;-39
2021/04/11 03:45:48;;;;;;;8.13;6.15;;;3.60;96.80;;;;;;5006159;28;20075;-38
2021/04/11 03:48:58;;;;;;;6.75;4.80;;;3.60;96.90;;;;;;5008323;28;20514;-36
2021/04/11 03:51:29;;;;;;;6.30;4.70;;;3.60;97.20;;;;;;4949583;28;20074;-38
2021/04/11 03:54:03;;;;;;;8.67;5.07;;;3.60;96.80;;;;;;4946840;28;20051;-39
2021/04/11 03:56:42;;;;;;;6.03;4.50;;;3.60;96.80;;;;;;4947420;28;20626;-39
2021/04/11 03:59:18;;;;;;;5.32;4.60;;;3.60;96.90;;;;;;4939174;29;20043;-39
2021/04/11 04:01:51;;;;;;;6.45;4.93;;;3.60;96.80;;;;;;4948307;28;20061;-39
2021/04/11 04:04:20;;;;;;;8.38;5.22;;;3.60;96.90;;;;;;4946163;28;20058;-38
2021/04/11 04:06:57;;;;;;;6.97;4.88;;;3.60;96.80;;;;;;4984546;28;20057;-39
2021/04/11 04:09:24;;;;;;;5.95;4.50;;;3.60;96.90;;;;;;5003844;28;20058;-38
2021/04/11 04:12:23;;;;;;;5.25;4.18;;;3.60;96.80;;;;;;5004194;28;20046;-39
2021/04/11 04:15:18;;;;;;;4.55;4.10;;;3.60;96.90;;;;;;5000469;28;20145;-38
2021/04/11 04:18:13;;;;;;;5.32;4.25;;;3.60;96.90;;;;;;4995570;28;20649;-38
2021/04/11 04:21:12;;;;;;;7.22;4.90;;;3.60;96.80;;;;;;4998480;28;20529;-38
2021/04/11 04:23:44;;;;;;;6.10;4.43;;;3.60;96.90;;;;;;5003865;28;20096;-39
2021/04/11 04:26:28;;;;;;;8.23;4.28;;;3.60;96.90;;;;;;4996820;28;20107;-39
2021/04/11 04:29:08;;;;;;;5.20;4.32;;;3.60;96.80;;;;;;5043736;28;20090;-38
2021/04/11 04:31:46;;;;;;;6.78;4.45;;;3.60;96.80;;;;;;5044125;28;20052;-38
2021/04/11 04:34:40;;;;;;;5.57;4.70;;;3.60;96.80;;;;;;5043911;28;20060;-38
2021/04/11 04:37:33;;;;;;;7.28;4.82;;;3.60;96.80;;;;;;5046414;28;20091;-38
2021/04/11 04:40:02;;;;;;;5.70;4.97;;;3.50;96.80;;;;;;5042304;28;20053;-38
2021/04/11 04:42:46;;;;;;;6.88;4.60;;;3.50;96.90;;;;;;5043881;28;20056;-38
2021/04/11 04:45:29;;;;;;;7.13;4.70;;;3.50;96.80;;;;;;5043718;28;20147;-38
2021/04/11 04:48:11;;;;;;;8.20;5.10;;;3.50;96.90;;;;;;5043765;28;20060;-38
2021/04/11 04:50:46;;;;;;;6.97;5.10;;;3.50;97.00;;;;;;5042847;28;20135;-38
2021/04/11 04:53:31;;;;;;;8.15;4.70;;;3.50;97.00;;;;;;5043708;28;20052;-38
2021/04/11 04:56:06;;;;;;;7.60;4.55;;;3.50;97.00;;;;;;5043873;28;20053;-38
2021/04/11 04:58:40;;;;;;;8.52;4.18;;;3.50;97.00;;;;;;5029273;28;20053;-38
2021/04/11 05:01:20;;;;;;;4.80;4.15;;;3.50;97.10;;;;;;5046855;28;20057;-38
2021/04/11 05:03:58;;;;;;;6.88;4.80;;;3.40;97.10;;;;;;5047004;28;20413;-38
2021/04/11 05:06:42;;;;;;;5.18;4.55;;;3.50;97.20;;;;;;5048163;28;20044;-38
2021/04/11 05:09:23;;;;;;;6.15;4.10;;;3.50;97.30;;;;;;5046738;28;20090;-38
2021/04/11 05:12:14;;;;;;;7.60;4.90;;;3.40;97.20;;;;;;5036065;28;20484;-38
2021/04/11 05:14:50;;;;;;;5.75;4.53;;;3.50;97.20;;;;;;5051531;28;20064;-38
2021/04/11 05:17:30;;;;;;;8.73;5.18;;;3.50;97.20;;;;;;5038929;28;20053;-38
2021/04/11 05:20:07;;;;;;;5.60;4.43;;;3.50;97.30;;;;;;5046339;28;20110;-38
2021/04/11 05:22:51;;;;;;;6.60;5.18;;;3.50;97.30;;;;;;5042502;28;20053;-39
2021/04/11 05:25:47;;;;;;;5.70;4.60;;;3.50;97.30;;;;;;5047026;28;20060;-38
2021/04/11 05:28:33;;;;;;;7.97;4.20;;;3.50;97.30;;;;;;5046241;28;20306;-38
2021/04/11 05:31:05;;;;;;;4.47;3.55;;;3.60;97.30;;;;;;5047208;28;20056;-38
2021/04/11 05:33:35;;;;;;;6.55;4.03;;;3.50;97.20;;;;;;5045801;28;20152;-38
2021/04/11 05:36:22;;;;;;;7.47;3.42;;;3.60;97.30;;;;;;5046253;28;20052;-38
2021/04/11 05:39:04;;;;;;;7.60;4.00;;;3.60;97.30;;;;;;5046205;28;20053;-38
2021/04/11 05:41:40;;;;;;;5.20;3.90;;;3.60;97.30;;;;;;5045637;28;20085;-38
2021/04/11 05:44:39;;;;;;;4.38;3.60;;;3.60;97.30;;;;;;5046351;28;20560;-38
2021/04/11 05:47:49;;;;;;;3.08;2.75;;;3.70;97.30;;;;;;5003829;28;20061;-38
2021/04/11 05:50:23;;;;;;;5.07;2.78;;;3.60;97.10;;;;;;4983473;28;20116;-39
2021/04/11 05:53:07;;;;;;;5.32;2.30;;;3.70;97.20;;;;;;4982900;28;20084;-39
2021/04/11 05:55:39;;;;;;;4.80;2.50;;;3.80;97.20;;;;;;4983212;28;20078;-39
2021/04/11 05:58:18;;;;;;;4.47;2.60;;;3.70;97.10;;;;;;4983760;28;20112;-38
2021/04/11 06:00:53;;;;;;;4.88;2.33;;;3.70;97.00;;;;;;4983792;28;20066;-38
2021/04/11 06:03:27;;;;;;;4.10;2.55;;;3.80;97.00;;;;;;4983732;28;20055;-38
2021/04/11 06:06:24;;;;;;;5.20;2.80;;;3.80;97.00;;;;;;4989417;28;20579;-38
2021/04/11 06:09:07;;;;;;;5.10;2.30;;;3.80;97.00;;;;;;4983800;28;20053;-38
2021/04/11 06:11:56;;;;;;;5.78;2.95;;;3.70;96.90;;;;;;4984857;28;20661;-38
2021/04/11 06:14:47;;;;;;;5.00;2.75;;;3.80;96.70;;;;;;4980158;28;20081;-38
2021/04/11 06:17:19;;;;;;;192.30;141.05;;;3.80;96.60;;;;;;4977873;28;20057;-38
2021/04/11 06:19:48;;;;;;;16.20;9.73;;;4.00;96.70;;;;;;4979597;28;20042;-38
2021/04/11 06:22:22;;;;;;;12.65;7.60;;;4.00;96.20;;;;;;4986137;28;20318;-38
2021/04/11 06:25:16;;;;;;;10.55;7.38;;;4.00;96.10;;;;;;5037784;28;20508;-38
2021/04/11 06:28:04;;;;;;;7.38;4.88;;;4.00;95.50;;;;;;5049086;28;20045;-38
2021/04/11 06:31:03;;;;;;;6.07;3.50;;;4.10;95.30;;;;;;5048523;28;20106;-38
2021/04/11 06:33:44;;;;;;;7.18;3.78;;;4.10;95.40;;;;;;5017432;28;20053;-38
2021/04/11 06:36:23;;;;;;;211.45;154.55;;;4.20;95.10;;;;;;5025559;28;20049;-38
2021/04/11 06:39:20;;;;;;;11.50;6.45;;;4.40;95.10;;;;;;5025796;28;20060;-38
2021/04/11 06:42:21;;;;;;;10.18;5.88;;;4.20;94.60;;;;;;5018783;28;20588;-38
2021/04/11 06:45:13;;;;;;;5.18;2.80;;;4.20;94.70;;;;;;5025593;28;20045;-40
2021/04/11 06:47:54;;;;;;;5.35;2.78;;;4.30;94.40;;;;;;5025226;28;20045;-38
2021/04/11 06:50:40;;;;;;;12.63;9.05;;;4.20;94.50;;;;;;5009468;28;20149;-39
2021/04/11 06:53:43;;;;;;;10.88;6.70;;;4.40;94.60;;;;;;5015840;28;20630;-39
2021/04/11 06:56:36;;;;;;;6.38;3.88;;;4.40;94.50;;;;;;5025550;28;20596;-39
2021/04/11 06:59:25;;;;;;;6.78;3.47;;;4.30;94.50;;;;;;5024762;28;20049;-39
2021/04/11 07:02:48;;;;;;;6.90;3.05;;;4.30;94.70;;;;;;5024395;28;20052;-38
2021/04/11 07:05:17;;;;;;;4.72;2.30;;;4.40;94.30;;;;;;4985605;28;20141;-39
2021/04/11 07:08:32;;;;;;;58.30;42.90;;;4.50;94.10;;;;;;4984453;28;20062;-39
2021/04/11 07:11:10;;;;;;;17.83;11.18;;;4.60;94.50;;;;;;5014387;28;20557;-37
2021/04/11 07:14:11;;;;;;;11.18;5.93;;;4.90;94.00;;;;;;5024227;28;20149;-38
2021/04/11 07:17:03;;;;;;;8.85;5.82;;;5.00;93.30;;;;;;5022245;28;20054;-38
2021/04/11 07:20:03;;;;;;;4.18;2.00;;;5.10;93.10;;;;;;5024264;28;20075;-38
2021/04/11 07:22:34;;;;;;;4.22;3.00;;;4.90;92.40;;;;;;5023080;28;20059;-38
2021/04/11 07:25:21;;;;;;;13.05;6.88;;;5.20;93.40;;;;;;5015571;28;20668;-38
2021/04/11 07:27:52;;;;;;;23.73;15.80;;;5.20;92.60;;;;;;5020756;28;20076;-38
2021/04/11 07:30:31;;;;;;;6.70;2.03;;;5.20;92.50;;;;;;5021616;28;20052;-38
2021/04/11 07:33:30;;;;;;;33.05;22.67;;;5.30;92.10;;;;;;5021059;28;20049;-38
2021/04/11 07:36:10;;;;;;;8.40;2.53;;;5.30;92.20;;;;;;5025428;28;20112;-36
2021/04/11 07:38:52;;;;;;;6.45;1.95;;;5.10;92.50;;;;;;5024426;28;20068;-36
2021/04/11 07:41:52;;;;;;;4.63;2.10;;;5.10;92.70;;;;;;5026021;28;20499;-36
2021/04/11 07:44:34;;;;;;;5.13;2.00;;;5.10;92.70;;;;;;5041490;28;20515;-35
2021/04/11 07:47:26;;;;;;;5.45;2.53;;;5.00;92.30;;;;;;5042297;28;20048;-36
2021/04/11 07:50:10;;;;;;;8.52;1.92;;;5.10;92.60;;;;;;5047712;28;20052;-36
2021/04/11 07:53:06;;;;;;;5.75;2.40;;;5.20;92.70;;;;;;5046534;28;20125;-36
2021/04/11 07:55:39;;;;;;;3.33;1.90;;;5.00;92.20;;;;;;5046788;28;20091;-36
2021/04/11 07:58:37;;;;;;;8.73;2.28;;;5.20;92.60;;;;;;5047314;28;20087;-36
2021/04/11 08:01:22;;;;;;;9.60;4.28;;;5.20;92.00;;;;;;5044094;28;20060;-36
2021/04/11 08:04:14;;;;;;;8.77;3.58;;;5.10;91.70;;;;;;5050891;28;20155;-35
2021/04/11 08:06:52;;;;;;;11.73;6.57;;;5.20;92.00;;;;;;5042866;28;20053;-36
2021/04/11 08:09:49;;;;;;;13.93;6.90;;;5.20;92.20;;;;;;5029045;28;20053;-35
2021/04/11 08:12:52;;;;;;;7.57;3.55;;;5.50;92.30;;;;;;4968361;28;20135;-36
2021/04/11 08:15:45;;;;;;;11.90;5.10;;;5.80;91.50;;;;;;4984176;28;20048;-36
2021/04/11 08:18:38;;;;;;;8.60;3.67;;;5.90;90.80;;;;;;4984906;28;20073;-36
2021/04/11 08:21:41;;;;;;;7.03;2.35;;;6.00;90.50;;;;;;4985929;28;20073;-36
2021/04/11 08:24:25;;;;;;;6.30;1.92;;;5.90;90.50;;;;;;4986531;28;20054;-36
2021/04/11 08:27:11;;;;;;;6.32;2.13;;;5.80;90.70;;;;;;4985299;28;20042;-36
2021/04/11 08:29:51;;;;;;;7.43;3.60;;;5.60;90.80;;;;;;4989425;28;20719;-36
2021/04/11 08:32:27;;;;;;;6.57;2.25;;;5.50;90.60;;;;;;4985806;28;20550;-36
2021/04/11 08:34:57;;;;;;;10.30;2.35;;;5.50;90.40;;;;;;4995747;28;20057;-35
2021/04/11 08:37:52;;;;;;;5.35;2.33;;;5.40;90.30;;;;;;4985659;28;20989;-36
2021/04/11 08:40:32;;;;;;;8.52;4.43;;;5.50;91.10;;;;;;4983694;28;20169;-35
2021/04/11 08:43:22;;;;;;;8.23;4.15;;;5.60;91.00;;;;;;4968045;28;20061;-36
2021/04/11 08:45:55;;;;;;;12.38;4.13;;;5.60;90.70;;;;;;4977111;28;20065;-35
2021/04/11 08:48:47;;;;;;;11.23;3.55;;;5.60;90.90;;;;;;4993413;28;20050;-35
2021/04/11 08:51:21;;;;;;;9.45;4.22;;;5.60;90.60;;;;;;5052381;28;20059;-35
2021/04/11 08:54:05;;;;;;;6.80;3.17;;;5.60;91.10;;;;;;5076925;28;20061;-36
2021/04/11 08:57:10;;;;;;;8.07;2.97;;;5.50;90.50;;;;;;5047304;28;20105;-35
2021/04/11 09:00:00;;;;;;;9.57;2.63;;;5.50;90.40;;;;;;5042928;28;20044;-35
2021/04/11 09:03:03;;;;;;;5.35;1.95;;;5.50;90.40;;;;;;5045525;28;20095;-36
2021/04/11 09:05:52;;;;;;;;;;;5.60;90.50;;;;;;5047841;28;20044;-36
2021/04/11 09:08:36;;;;;;;6.13;2.67;;;5.40;89.60;;;;;;5045263;28;20420;-36
2021/04/11 09:11:38;;;;;;;9.50;3.60;;;5.30;90.50;;;;;;5047254;28;20059;-36
2021/04/11 09:14:07;;;;;;;7.57;2.28;;;5.30;90.70;;;;;;5042532;28;20190;-36
2021/04/11 09:16:55;;;;;;;6.07;2.47;;;5.30;90.10;;;;;;5042633;28;20044;-36
2021/04/11 09:19:56;;;;;;;9.18;3.70;;;5.40;90.60;;;;;;5021373;28;20061;-36
2021/04/11 09:22:48;;;;;;;7.35;2.08;;;5.80;90.40;;;;;;5010611;28;20072;-35
2021/04/11 09:25:21;;;;;;;9.68;4.43;;;6.00;89.60;;;;;;5022652;28;20060;-35
2021/04/11 09:28:05;;;;;;;11.77;6.93;;;6.00;89.20;;;;;;5022939;28;20116;-36
2021/04/11 09:30:49;;;;;;;7.32;2.75;;;6.00;89.00;;;;;;5022912;28;20560;-36
2021/04/11 09:33:19;;;;;;;7.80;2.50;;;6.00;88.50;;;;;;5022093;28;20175;-36
2021/04/11 09:36:23;;;;;;;8.70;5.03;;;6.30;88.30;;;;;;5021889;28;20514;-35
2021/04/11 09:39:17;;;;;;;7.93;2.28;;;6.50;86.60;;;;;;4982809;28;20121;-35
2021/04/11 09:41:45;;;;;;;;;;;6.30;85.60;;;;;;4982814;28;20065;-35
2021/04/11 09:44:30;;;;;;;5.35;1.85;;;6.20;85.30;;;;;;4983754;28;20025;-35
2021/04/11 09:47:39;;;;;;;9.63;3.40;;;6.20;86.80;;;;;;4964017;28;20054;-36
2021/04/11 09:50:18;;;;;;;8.80;2.10;;;6.10;87.30;;;;;;4981269;28;20054;-36
2021/04/11 09:53:05;;;;;;;6.95;2.47;;;6.00;85.80;;;;;;4939779;28;20541;-36
2021/04/11 09:55:42;;;;;;;8.88;2.80;;;6.20;86.50;;;;;;4951274;28;20054;-36
2021/04/11 09:58:28;;;;;;;9.13;3.08;;;6.60;87.30;;;;;;5004623;28;20081;-36
2021/04/11 10:01:11;;;;;;;5.63;1.67;;;6.90;86.60;;;;;;5007815;28;20628;-36
2021/04/11 10:03:59;;;;;;;7.22;2.92;;;7.10;84.80;;;;;;5005944;28;20049;-36
2021/04/11 10:06:41;;;;;;;9.10;4.68;;;6.90;82.80;;;;;;5005653;28;20909;-35
2021/04/11 10:09:26;;;;;;;5.97;2.45;;;6.80;84.90;;;;;;5006196;28;20053;-36
2021/04/11 10:12:17;;;;;;;8.88;2.90;;;6.80;85.00;;;;;;5006321;28;20580;-36
2021/04/11 10:15:01;;;;;;;8.43;5.05;;;6.70;85.50;;;;;;5031652;28;20049;-37
2021/04/11 10:17:36;;;;;;;6.40;2.80;;;6.90;85.90;;;;;;5046932;28;20053;-37
2021/04/11 10:20:34;;;;;;;10.48;4.63;;;6.90;84.90;;;;;;5047079;28;20059;-35
2021/04/11 10:23:16;;;;;;;11.13;5.55;;;6.90;83.90;;;;;;5047298;28;20412;-36
2021/04/11 10:25:43;;;;;;;;;;;6.80;85.10;;;;;;5045919;28;20149;-36
2021/04/11 10:28:32;;;;;;;6.60;2.35;;;6.50;82.90;;;;;;5047435;28;20534;-37
2021/04/11 10:31:28;;;;;;;13.38;5.65;;;6.40;83.20;;;;;;5043094;28;20106;-37
2021/04/11 10:34:05;;;;;;;9.40;4.10;;;6.50;84.40;;;;;;5046349;28;20500;-38
2021/04/11 10:36:41;;;;;;;8.07;2.90;;;6.70;84.60;;;;;;5044144;28;20049;-36
2021/04/11 10:39:40;;;;;;;9.77;3.47;;;6.80;82.60;;;;;;5046640;28;20091;-36
2021/04/11 10:42:26;;;;;;;9.80;3.20;;;6.90;82.20;;;;;;5048565;28;20469;-38
2021/04/11 10:45:17;;;;;;;5.43;2.30;;;7.00;83.20;;;;;;5048773;28;20489;-38
2021/04/11 10:48:01;;;;;;;5.82;2.30;;;6.90;81.70;;;;;;5046336;28;20049;-36
2021/04/11 10:50:52;;;;;;;74.60;52.30;;;7.00;82.20;;;;;;5046365;28;20068;-36
2021/04/11 10:53:45;;;;;;;8.95;3.83;;;7.20;81.60;;;;;;5046104;28;20055;-37
2021/04/11 10:56:54;;;;;;;20.80;12.70;;;7.40;82.10;;;;;;5047514;28;20098;-37
2021/04/11 10:59:42;;;;;;;13.38;6.63;;;7.40;79.90;;;;;;5046789;28;20575;-39
2021/04/11 11:02:41;;;;;;;10.90;5.57;;;7.20;80.60;;;;;;5046983;28;20059;-38
2021/04/11 11:05:19;;;;;;;7.32;2.50;;;7.30;80.90;;;;;;5046576;28;20049;-39
2021/04/11 11:08:17;;;;;;;8.40;2.95;;;7.00;79.00;;;;;;5046762;28;21810;-40
2021/04/11 11:11:11;;;;;;;4.18;1.88;;;6.90;81.20;;;;;;5046564;28;20521;-40
2021/04/11 11:14:02;;;;;;;6.05;3.00;;;7.00;80.70;;;;;;5045049;28;20033;-39
2021/04/11 11:16:51;;;;;;;6.10;2.75;;;6.90;81.30;;;;;;5060812;28;20052;-40
2021/04/11 11:19:54;;;;;;;6.53;2.85;;;7.00;81.90;;;;;;5044966;28;20059;-39
2021/04/11 11:22:27;;;;;;;5.65;2.58;;;6.80;81.80;;;;;;5042888;28;20049;-39
2021/04/11 11:25:17;;;;;;;5.57;2.60;;;6.80;82.10;;;;;;5050138;28;20090;-39
2021/04/11 11:28:04;;;;;;;5.03;1.80;;;6.60;81.00;;;;;;5044459;28;20052;-38
2021/04/11 11:31:07;;;;;;;4.35;2.03;;;6.50;81.80;;;;;;5046310;28;20105;-39
2021/04/11 11:34:05;;;;;;;5.43;2.60;;;6.50;80.50;;;;;;5047083;28;20083;-37
2021/04/11 11:36:50;;;;;;;7.40;2.63;;;6.30;79.70;;;;;;5044336;28;20048;-39
2021/04/11 11:39:45;;;;;;;6.05;2.40;;;6.20;81.00;;;;;;5046765;28;20045;-39
2021/04/11 11:42:28;;;;;;;4.90;1.73;;;6.20;81.70;;;;;;5045429;28;20126;-38
2021/04/11 11:45:16;;;;;;;4.38;1.83;;;6.20;84.70;;;;;;5045762;28;20045;-39
2021/04/11 11:48:17;;;;;;;10.05;5.65;;;6.30;85.90;;;;;;5047548;28;20041;-38
2021/04/11 11:51:07;;;;;;;;;;;6.80;86.50;;;;;;5073189;28;20049;-39
2021/04/11 11:53:43;;;;;;;9.48;5.22;;;7.00;84.10;;;;;;5045733;28;19929;-38
2021/04/11 11:56:33;;;;;;;6.70;3.10;;;7.40;83.70;;;;;;5044248;28;20056;-38
2021/04/11 11:59:18;;;;;;;11.05;5.50;;;7.80;82.10;;;;;;5044888;28;20206;-40
2021/04/11 12:02:03;;;;;;;5.20;2.25;;;8.10;81.00;;;;;;5045395;28;20049;-38
2021/04/11 12:04:34;;;;;;;7.68;2.92;;;8.40;78.70;;;;;;5044927;28;20049;-39
2021/04/11 12:07:26;;;;;;;6.15;2.45;;;8.40;76.60;;;;;;5043049;28;20080;-39
2021/04/11 12:10:18;;;;;;;4.88;2.38;;;8.80;78.10;;;;;;5042003;28;20129;-40
2021/04/11 12:13:41;;;;;;;5.50;2.20;;;8.70;75.70;;;;;;5020353;28;20244;-38
2021/04/11 12:16:30;;;;;;;4.93;1.65;;;8.50;76.00;;;;;;4982427;28;20058;-39
2021/04/11 12:19:38;;;;;;;20.77;14.68;;;8.00;78.30;;;;;;4978814;28;20049;-38
2021/04/11 12:22:14;;;;;;;14.32;7.97;;;7.50;81.60;;;;;;4981400;28;20093;-39
2021/04/11 12:25:08;;;;;;;7.47;3.30;;;7.70;84.40;;;;;;4982802;28;20233;-39
2021/04/11 12:27:38;;;;;;;7.45;4.82;;;8.40;84.90;;;;;;4978316;28;20085;-38
2021/04/11 12:30:13;;;;;;;8.40;4.68;;;8.70;82.20;;;;;;4982968;28;20078;-38
2021/04/11 12:33:16;;;;;;;16.00;10.48;;;8.70;79.90;;;;;;4982774;28;20526;-39
2021/04/11 12:36:08;;;;;;;18.98;14.00;;;8.70;78.00;;;;;;4974028;28;20089;-37
2021/04/11 12:38:45;;;;;;;6.45;3.63;;;8.00;78.90;;;;;;4982959;28;20050;-38
2021/04/11 12:41:32;;;;;;;5.72;3.00;;;7.50;79.30;;;;;;4985667;28;20514;-37
2021/04/11 12:44:22;;;;;;;9.60;4.30;;;7.40;80.40;;;;;;4983638;28;20061;-37
2021/04/11 12:47:24;;;;;;;8.02;3.28;;;8.00;82.00;;;;;;5000201;28;20057;-37
2021/04/11 12:49:53;;;;;;;4.90;1.83;;;8.40;78.90;;;;;;5034397;28;20048;-37
2021/04/11 12:52:52;;;;;;;8.20;2.00;;;8.80;79.10;;;;;;5045481;28;20075;-38
2021/04/11 12:55:33;;;;;;;4.90;1.75;;;8.30;74.90;;;;;;5045805;28;20136;-37
2021/04/11 12:58:12;;;;;;;5.38;2.50;;;8.10;80.00;;;;;;5045848;28;20486;-39
2021/04/11 13:01:16;;;;;;;3.45;1.20;;;7.70;81.10;;;;;;5045252;28;20907;-35
2021/04/11 13:04:02;;;;;;;4.88;1.63;;;7.60;81.20;;;;;;5042574;28;20118;-37
2021/04/11 13:06:39;;;;;;;4.72;1.30;;;7.20;79.40;;;;;;5040547;28;20048;-38
2021/04/11 13:09:20;;;;;;;9.88;3.63;;;7.00;78.10;;;;;;5043597;28;20119;-37
2021/04/11 13:11:55;;;;;;;5.32;1.60;;;7.10;80.40;;;;;;5042075;28;20049;-38
2021/04/11 13:14:51;;;;;;;4.00;1.80;;;7.10;78.60;;;;;;5042977;28;20065;-36
2021/04/11 13:17:30;;;;;;;5.60;1.45;;;7.40;79.60;;;;;;5042630;28;20053;-38
2021/04/11 13:20:15;;;;;;;6.35;1.90;;;7.40;79.40;;;;;;5043346;28;20049;-37
2021/04/11 13:23:06;;;;;;;3.75;1.55;;;7.50;80.00;;;;;;5043383;28;20049;-37
2021/04/11 13:25:36;;;;;;;6.47;1.92;;;7.50;77.60;;;;;;5042705;28;20048;-37
2021/04/11 13:28:07;;;;;;;9.13;3.95;;;7.70;77.30;;;;;;5042322;28;20053;-38
2021/04/11 13:30:43;;;;;;;5.43;1.98;;;8.00;78.10;;;;;;5045901;28;20525;-39
2021/04/11 13:33:15;;;;;;;4.55;1.63;;;8.70;75.70;;;;;;5034299;28;20053;-37
2021/04/11 13:35:44;;;;;;;4.72;1.88;;;9.80;71.40;;;;;;5031964;28;20056;-37
2021/04/11 13:38:38;;;;;;;6.15;2.38;;;9.80;70.90;;;;;;5023467;28;20141;-37
2021/04/11 13:41:12;;;;;;;4.82;1.95;;;9.30;68.80;;;;;;5024445;28;20490;-37
2021/04/11 13:44:08;;;;;;;2.97;1.05;;;8.70;71.60;;;;;;5057063;28;20046;-37
2021/04/11 13:46:44;;;;;;;6.15;2.20;;;8.40;73.10;;;;;;5036257;28;20049;-37
2021/04/11 13:49:31;;;;;;;2.42;1.02;;;8.60;74.20;;;;;;5042781;28;20165;-37
2021/04/11 13:52:06;;;;;;;4.68;1.20;;;8.70;71.60;;;;;;5042910;28;20076;-37
2021/04/11 13:54:47;;;;;;;3.78;1.05;;;8.50;72.50;;;;;;5042126;28;20806;-37
2021/04/11 13:57:18;;;;;;;2.38;0.93;;;8.90;73.10;;;;;;5042478;28;20048;-38
2021/04/11 13:59:52;;;;;;;3.63;0.75;;;9.60;72.10;;;;;;5060237;28;20044;-38
2021/04/11 14:02:30;;;;;;;3.97;1.35;;;10.10;68.60;;;;;;5043763;28;20048;-39
2021/04/11 14:05:20;;;;;;;5.25;2.72;;;11.20;65.70;;;;;;5049658;28;20526;-38
2021/04/11 14:07:59;;;;;;;29.10;22.40;;;11.30;64.70;;;;;;5039422;28;20977;-38
2021/04/11 14:10:30;;;;;;;12.63;7.43;;;10.80;66.30;;;;;;5044692;28;20154;-38